createdAt,value
2022-08-19T00:01:57.470Z,0.07
2022-08-19T00:13:57.979Z,0.14
2022-08-19T00:25:58.455Z,0.00
2022-08-19T00:37:58.881Z,0.00
2022-08-19T00:49:59.355Z,0.37
2022-08-19T01:01:59.811Z,0.06
2022-08-19T01:14:00.278Z,0.14
2022-08-19T01:26:00.734Z,0.11
2022-08-19T01:38:01.172Z,0.01
2022-08-19T01:50:01.606Z,0.09
2022-08-19T02:02:02.099Z,0.03
2022-08-19T02:14:02.522Z,0.00
2022-08-19T02:26:02.969Z,0.05
2022-08-19T02:38:03.469Z,0.00
2022-08-19T02:50:03.920Z,0.00
2022-08-19T03:02:04.330Z,0.00
2022-08-19T03:14:04.786Z,0.65
2022-08-19T03:26:16.360Z,0.32
2022-08-19T03:38:05.738Z,0.22
2022-08-19T03:50:06.176Z,0.37
2022-08-19T04:02:06.667Z,0.18
2022-08-19T04:14:07.084Z,0.02
2022-08-19T04:26:07.564Z,0.46
2022-08-19T04:38:07.973Z,0.00
2022-08-19T04:50:08.413Z,0.28
2022-08-19T05:02:08.898Z,1.03
2022-08-19T05:14:09.365Z,0.21
2022-08-19T05:26:09.833Z,0.61
2022-08-19T05:38:10.260Z,0.64
2022-08-19T05:50:10.732Z,0.75
2022-08-19T06:02:11.254Z,0.20
2022-08-19T06:14:16.560Z,0.11
2022-08-19T06:26:12.102Z,0.10
2022-08-19T06:38:12.540Z,0.59
2022-08-19T06:50:13.021Z,0.29
2022-08-19T07:02:13.500Z,0.35
2022-08-19T07:14:19.131Z,0.63
2022-08-19T07:26:14.353Z,0.27
2022-08-19T07:38:14.831Z,0.61
2022-08-19T07:50:15.259Z,0.04
2022-08-19T08:02:15.742Z,0.11
2022-08-19T08:14:29.373Z,0.04
2022-08-19T08:26:16.661Z,0.50
2022-08-19T08:38:17.089Z,0.34
2022-08-19T08:50:17.563Z,0.49
2022-08-19T09:02:17.996Z,0.37
2022-08-19T09:14:46.961Z,1.14
2022-08-19T09:26:19.921Z,0.64
2022-08-19T09:38:19.371Z,0.13
2022-08-19T09:50:19.856Z,0.07
2022-08-19T10:02:22.062Z,0.97
2022-08-19T10:14:20.742Z,0.84
2022-08-19T10:26:21.196Z,0.62
2022-08-19T10:38:21.662Z,2.50
2022-08-19T10:50:22.137Z,1.02
2022-08-19T11:02:22.573Z,0.41
2022-08-19T11:14:23.022Z,1.63
2022-08-19T11:26:23.487Z,2.51
2022-08-19T11:38:23.966Z,1.50
2022-08-19T11:50:24.377Z,1.32
2022-08-19T12:02:24.880Z,1.96
2022-08-19T12:14:25.260Z,2.00
2022-08-19T12:26:25.756Z,1.62
2022-08-19T12:38:26.210Z,0.80
2022-08-19T12:50:26.666Z,1.00
2022-08-19T13:02:27.139Z,0.52
2022-08-19T13:14:27.559Z,0.77
2022-08-19T13:26:28.050Z,0.88
2022-08-19T13:38:28.505Z,1.46
2022-08-19T13:50:29.031Z,0.94
2022-08-19T14:02:29.444Z,1.49
2022-08-19T14:14:29.851Z,1.07
2022-08-19T14:26:30.337Z,1.83
2022-08-19T14:38:31.495Z,1.62
2022-08-19T14:50:31.258Z,0.90
2022-08-19T15:02:34.688Z,0.55
2022-08-19T15:14:32.141Z,1.30
2022-08-19T15:26:32.599Z,0.86
2022-08-19T15:38:37.754Z,0.70
2022-08-19T15:50:33.598Z,0.23
2022-08-19T16:02:33.975Z,0.27
2022-08-19T16:14:34.474Z,0.13
2022-08-19T16:26:34.927Z,0.32
2022-08-19T16:38:35.379Z,0.07
2022-08-19T16:50:48.145Z,0.01
2022-08-19T17:02:36.283Z,0.06
2022-08-19T17:14:36.751Z,0.27
2022-08-19T17:26:37.190Z,0.28
2022-08-19T17:38:37.627Z,0.35
2022-08-19T17:50:38.070Z,0.00
2022-08-19T18:02:38.550Z,0.11
2022-08-19T18:14:38.984Z,0.40
2022-08-19T18:26:39.450Z,0.20
2022-08-19T18:38:39.911Z,0.04
2022-08-19T18:50:40.395Z,0.47
2022-08-19T19:02:40.849Z,0.17
2022-08-19T19:14:49.431Z,0.09
2022-08-19T19:26:41.705Z,0.18
2022-08-19T19:38:46.199Z,0.05
2022-08-19T19:50:42.671Z,0.06
2022-08-19T20:02:46.599Z,0.26
2022-08-19T20:14:43.588Z,0.23
2022-08-19T20:26:44.046Z,0.01
2022-08-19T20:38:44.468Z,0.16
2022-08-19T20:50:44.970Z,0.02
2022-08-19T21:02:45.356Z,0.18
2022-08-19T21:14:45.861Z,0.20
2022-08-19T21:26:50.790Z,0.01
2022-08-19T21:38:46.751Z,0.63
2022-08-19T21:50:48.317Z,0.06
2022-08-19T22:02:47.697Z,0.14
2022-08-19T22:14:48.109Z,0.13
2022-08-19T22:26:48.586Z,0.42
2022-08-19T22:38:49.039Z,0.08
2022-08-19T22:50:49.520Z,0.25
2022-08-19T23:02:52.390Z,0.20
2022-08-19T23:14:50.390Z,0.05
2022-08-19T23:26:50.832Z,0.00
2022-08-19T23:38:51.342Z,0.02
2022-08-19T23:50:51.742Z,0.22
